Terminal Aerodrome Forecast
Issued by NWS Anchorage, AK

Current Version | Previous Version | Text Only | Print | Product List | Glossary On
Versions: 1 2 3 4 5 6 7 8 9 10 11 12 13 14 15 16 17
000
FTAK31 PANC 180539
TAFANC
TAF
PANC 180539Z 1806/1912 14010KT P6SM SCT040 BKN080
      TEMPO 1806/1809 -SHRA FEW025 BKN040
     FM180900 16008KT P6SM FEW020 BKN060
     FM190000 16012KT P6SM -SHRA SCT030 BKN050=

USA.gov is the U.S. government's official web portal to all federal, state and local government web resources and services.